Time;durP1;ratioP1;P1;durP2;ratioP2;P2;SDS_P1;SDS_P2;PMS_P1;PMS_P2;Temp;Humidity;BMP_temperature;BMP_pressure;BME280_temperature;BME280_humidity;BME280_pressure;Samples;Min_cycle;Max_cycle;Signal;HPM_P1;HPM_P2
2022/02/04 00:05:07;;;;;;;36.53;18.92;;;9.10;99.90;;;;;;4956317;28;20485;-82
2022/02/04 00:21:30;;;;;;;33.22;17.88;;;8.80;99.90;;;;;;4956529;29;20374;-82
2022/02/04 00:23:59;;;;;;;34.72;19.13;;;8.90;99.90;;;;;;4955112;28;20130;-83
2022/02/04 00:26:30;;;;;;;30.80;18.42;;;8.90;99.90;;;;;;4954802;28;20794;-84
2022/02/04 00:29:24;;;;;;;32.95;18.38;;;8.90;99.90;;;;;;4956096;28;20473;-83
2022/02/04 00:31:48;;;;;;;31.73;18.17;;;8.90;99.90;;;;;;4955704;28;20281;-84
2022/02/04 00:34:17;;;;;;;33.65;19.20;;;8.90;99.90;;;;;;4956329;28;20177;-83
2022/02/04 00:36:50;;;;;;;31.65;18.63;;;9.00;99.90;;;;;;4955995;28;20035;-83
2022/02/04 00:39:23;;;;;;;31.60;18.90;;;9.00;99.90;;;;;;4956750;28;20402;-83
2022/02/04 00:41:50;;;;;;;30.50;18.85;;;9.00;99.90;;;;;;4955731;28;20055;-83
2022/02/04 00:44:21;;;;;;;33.30;18.33;;;9.00;99.90;;;;;;4954760;28;20039;-82
2022/02/04 00:49:22;;;;;;;31.58;17.65;;;8.90;99.90;;;;;;4956379;28;20031;-84
2022/02/04 00:52:08;;;;;;;31.42;18.20;;;8.90;99.90;;;;;;4970751;28;20031;-83
2022/02/04 01:25:54;;;;;;;33.75;19.90;;;9.00;99.90;;;;;;4955543;28;20476;-84
2022/02/04 01:27:24;;;;;;;34.17;20.33;;;8.90;99.90;;;;;;4955925;29;20086;-82
2022/02/04 01:30:00;;;;;;;36.60;20.15;;;9.00;99.90;;;;;;4955064;28;20237;-83
2022/02/04 01:32:26;;;;;;;34.88;19.65;;;9.00;99.90;;;;;;4954612;28;20382;-83
2022/02/04 01:34:52;;;;;;;36.60;20.40;;;9.00;99.90;;;;;;4954764;28;20050;-85
2022/02/04 01:37:17;;;;;;;37.03;21.15;;;9.00;99.90;;;;;;4953653;28;20361;-82
2022/02/04 01:39:43;;;;;;;34.35;21.33;;;9.00;99.90;;;;;;4955409;28;20034;-81
2022/02/04 01:42:09;;;;;;;39.20;21.33;;;9.00;99.90;;;;;;4971237;28;20058;-81
2022/02/04 01:44:35;;;;;;;38.70;20.50;;;9.00;99.90;;;;;;4953441;28;20031;-84
2022/02/04 01:47:01;;;;;;;33.97;19.15;;;9.00;99.90;;;;;;4954583;28;20042;-83
2022/02/04 01:49:29;;;;;;;37.70;21.00;;;9.00;99.90;;;;;;4954730;28;20056;-85
2022/02/04 01:51:56;;;;;;;36.13;20.65;;;9.00;99.90;;;;;;4954216;28;20031;-84
2022/02/04 01:54:23;;;;;;;34.72;20.92;;;9.00;99.90;;;;;;4954644;28;20031;-81
2022/02/04 01:56:50;;;;;;;38.33;21.77;;;9.10;99.90;;;;;;4953007;28;20438;-82
2022/02/04 01:59:15;;;;;;;33.55;20.10;;;9.10;99.90;;;;;;4954069;28;20111;-82
2022/02/04 02:01:41;;;;;;;37.80;20.33;;;9.10;99.90;;;;;;4954972;28;20073;-83
2022/02/04 02:04:10;;;;;;;36.85;20.20;;;9.10;99.90;;;;;;4961332;28;20430;-82
2022/02/04 02:06:50;;;;;;;38.40;20.58;;;9.10;99.90;;;;;;4973679;28;20090;-83
2022/02/04 02:09:16;;;;;;;33.30;19.60;;;9.10;99.90;;;;;;4955204;28;20023;-82
2022/02/04 02:11:43;;;;;;;34.65;19.42;;;9.10;99.90;;;;;;4956263;28;20469;-82
2022/02/04 02:14:12;;;;;;;35.28;20.38;;;9.00;99.90;;;;;;4957236;28;20095;-83
2022/02/04 02:41:44;;;;;;;29.63;17.65;;;9.20;99.90;;;;;;4934160;28;20039;-81
2022/02/04 02:49:06;;;;;;;32.05;18.48;;;9.10;99.90;;;;;;4934140;28;20094;-82
2022/02/04 02:54:55;;;;;;;34.45;18.27;;;9.00;99.90;;;;;;4923747;29;20509;-83
2022/02/04 03:00:12;;;;;;;32.75;18.85;;;9.00;99.90;;;;;;4935038;29;20094;-82
2022/02/04 03:02:38;;;;;;;37.45;19.60;;;9.00;99.90;;;;;;4934537;28;20031;-82
2022/02/04 03:05:04;;;;;;;34.75;19.90;;;9.10;99.90;;;;;;4934839;28;20031;-83
2022/02/04 03:07:30;;;;;;;34.05;19.48;;;9.10;99.90;;;;;;4934423;28;20046;-83
2022/02/04 03:09:55;;;;;;;33.22;19.20;;;9.00;99.90;;;;;;4934327;28;20475;-81
2022/02/04 03:12:21;;;;;;;36.42;20.15;;;9.00;99.90;;;;;;4934475;29;20039;-82
2022/02/04 03:14:47;;;;;;;35.55;20.02;;;9.10;99.90;;;;;;4948828;28;20035;-83
2022/02/04 03:17:14;;;;;;;33.65;20.17;;;9.00;99.90;;;;;;4948898;28;20028;-82
2022/02/04 03:19:43;;;;;;;34.85;19.48;;;9.00;99.90;;;;;;4933855;28;20028;-81
2022/02/04 03:22:12;;;;;;;34.40;19.02;;;9.00;99.90;;;;;;4949914;28;20035;-84
2022/02/04 03:24:40;;;;;;;36.30;20.48;;;9.00;99.90;;;;;;4937561;28;20027;-82
2022/02/04 03:27:09;;;;;;;34.28;19.15;;;9.10;99.90;;;;;;4938157;29;20026;-83
2022/02/04 03:30:04;;;;;;;37.63;19.10;;;9.10;99.90;;;;;;4937534;28;20036;-84
2022/02/04 03:32:22;;;;;;;35.65;18.65;;;9.10;99.90;;;;;;4937124;28;20099;-82
2022/02/04 03:34:48;;;;;;;33.42;18.90;;;9.10;99.90;;;;;;4938205;28;20028;-84
2022/02/04 03:37:14;;;;;;;33.42;18.98;;;9.10;99.90;;;;;;4937723;28;20043;-83
2022/02/04 03:39:40;;;;;;;33.05;18.75;;;9.00;99.90;;;;;;4952949;28;20028;-83
2022/02/04 03:42:06;;;;;;;36.10;18.25;;;9.10;99.90;;;;;;4938092;29;20270;-83
2022/02/04 03:44:32;;;;;;;32.83;19.15;;;9.10;99.90;;;;;;4937634;28;20043;-83
2022/02/04 03:46:59;;;;;;;33.33;19.10;;;9.10;99.90;;;;;;4938085;28;20526;-83
2022/02/04 03:49:25;;;;;;;31.58;18.67;;;9.10;99.90;;;;;;4938056;28;20067;-83
2022/02/04 03:51:50;;;;;;;29.88;17.23;;;9.00;99.90;;;;;;4953146;28;20066;-85
2022/02/04 03:54:16;;;;;;;33.78;18.55;;;9.00;99.90;;;;;;4936550;29;20031;-82
2022/02/04 03:56:41;;;;;;;34.90;18.92;;;9.00;99.90;;;;;;4937230;28;20051;-82
2022/02/04 03:59:07;;;;;;;32.42;18.60;;;9.00;99.90;;;;;;4936962;28;20031;-82
2022/02/04 04:01:32;;;;;;;30.92;18.10;;;9.00;99.90;;;;;;4937235;28;20042;-81
2022/02/04 04:03:58;;;;;;;36.08;18.80;;;9.10;99.90;;;;;;4937310;28;20087;-84
2022/02/04 04:06:24;;;;;;;36.20;19.05;;;9.10;99.90;;;;;;4937254;29;20028;-83
2022/02/04 04:08:53;;;;;;;33.20;18.60;;;9.10;99.90;;;;;;4936829;28;20031;-83
2022/02/04 04:11:19;;;;;;;37.28;20.02;;;9.00;99.90;;;;;;4936714;28;20047;-82
2022/02/04 04:13:45;;;;;;;33.50;18.80;;;9.10;99.90;;;;;;4936630;28;20032;-82
2022/02/04 04:16:10;;;;;;;31.98;19.05;;;9.10;99.90;;;;;;4936637;28;20040;-81
2022/02/04 04:18:36;;;;;;;35.45;19.83;;;9.10;99.90;;;;;;4936543;28;20031;-81
2022/02/04 04:21:01;;;;;;;36.78;19.02;;;9.20;99.90;;;;;;4938445;29;20347;-82
2022/02/04 04:23:28;;;;;;;34.13;18.60;;;9.10;99.90;;;;;;4943038;28;20535;-82
2022/02/04 04:25:53;;;;;;;34.88;19.58;;;9.10;99.90;;;;;;4944841;28;20042;-82
2022/02/04 04:28:19;;;;;;;36.50;19.98;;;9.20;99.90;;;;;;4941620;28;20032;-82
2022/02/04 04:30:45;;;;;;;31.63;18.27;;;9.20;99.90;;;;;;4938905;28;20034;-83
2022/02/04 04:33:11;;;;;;;35.05;18.45;;;9.10;99.90;;;;;;4951000;28;20032;-82
2022/02/04 04:35:38;;;;;;;34.30;18.23;;;9.20;99.90;;;;;;4936158;28;20032;-83
2022/02/04 04:40:55;;;;;;;34.83;18.63;;;9.20;99.90;;;;;;4936386;28;20051;-83
2022/02/04 05:29:51;;;;;;;34.03;18.92;;;9.10;99.90;;;;;;4933426;29;20046;-83
2022/02/04 05:32:17;;;;;;;34.78;18.58;;;9.10;99.90;;;;;;4935208;28;20032;-82
2022/02/04 05:34:45;;;;;;;32.58;18.20;;;9.00;99.90;;;;;;4935618;28;20028;-83
2022/02/04 05:37:13;;;;;;;30.60;17.33;;;9.00;99.90;;;;;;4950525;28;20169;-83
2022/02/04 05:39:55;;;;;;;33.85;18.55;;;9.10;99.90;;;;;;4950609;28;20072;-83
2022/02/04 05:42:27;;;;;;;29.45;17.05;;;9.10;99.90;;;;;;4935374;29;20040;-80
2022/02/04 05:45:06;;;;;;;32.10;18.05;;;9.20;99.90;;;;;;4935313;28;20328;-83
2022/02/04 05:47:33;;;;;;;29.58;17.23;;;9.00;99.90;;;;;;4935165;28;20042;-82
2022/02/04 05:50:10;;;;;;;31.73;17.77;;;9.10;99.90;;;;;;4950420;28;20032;-81
2022/02/04 05:53:11;;;;;;;32.63;18.30;;;9.00;99.90;;;;;;4935288;29;20457;-83
2022/02/04 05:58:02;;;;;;;31.52;17.40;;;9.00;99.90;;;;;;4935413;28;20039;-82
2022/02/04 06:00:41;;;;;;;29.45;17.27;;;9.10;99.90;;;;;;4935118;29;20037;-82
2022/02/04 06:11:24;;;;;;;32.13;15.75;;;9.10;99.90;;;;;;4934858;28;20051;-82
2022/02/04 06:22:19;;;;;;;27.33;15.50;;;9.20;99.90;;;;;;4934631;28;20079;-82
2022/02/04 06:24:46;;;;;;;29.15;16.45;;;9.10;99.90;;;;;;4949918;28;20031;-82
2022/02/04 06:27:12;;;;;;;30.80;15.38;;;9.10;99.90;;;;;;4950054;28;20165;-85
2022/02/04 06:29:38;;;;;;;29.17;15.25;;;9.20;99.90;;;;;;4934649;29;20486;-81
2022/02/04 06:32:04;;;;;;;30.70;15.23;;;9.20;99.90;;;;;;4949240;28;20032;-81
2022/02/04 06:34:29;;;;;;;27.83;15.18;;;9.20;99.90;;;;;;4934384;28;20465;-81
2022/02/04 06:36:55;;;;;;;30.45;16.02;;;9.20;99.90;;;;;;4934177;28;20071;-81
2022/02/04 06:39:20;;;;;;;27.98;15.48;;;9.20;99.90;;;;;;4934599;29;20031;-82
2022/02/04 06:41:46;;;;;;;29.30;16.05;;;9.10;99.90;;;;;;4933946;29;20059;-82
2022/02/04 06:44:14;;;;;;;26.60;16.00;;;9.10;99.90;;;;;;4933976;28;20115;-81
2022/02/04 06:46:39;;;;;;;28.08;15.48;;;9.00;99.90;;;;;;4948810;28;20032;-81
2022/02/04 06:49:05;;;;;;;25.85;14.45;;;9.10;99.90;;;;;;4949034;28;20103;-82
2022/02/04 06:51:31;;;;;;;29.20;15.77;;;9.10;99.90;;;;;;4933995;29;20127;-82
2022/02/04 06:53:57;;;;;;;26.58;14.55;;;9.10;99.90;;;;;;4934543;29;20024;-82
2022/02/04 06:56:23;;;;;;;24.55;13.77;;;9.10;99.90;;;;;;4948281;28;20028;-81
2022/02/04 06:58:48;;;;;;;27.88;14.20;;;9.10;99.90;;;;;;4949211;28;20169;-82
2022/02/04 07:01:14;;;;;;;28.77;14.90;;;9.10;99.90;;;;;;4934291;28;20028;-82
2022/02/04 07:03:40;;;;;;;23.58;13.80;;;9.10;99.90;;;;;;4948793;28;20086;-81
2022/02/04 07:06:06;;;;;;;21.38;12.57;;;9.20;99.90;;;;;;4934504;29;20027;-80
2022/02/04 07:09:02;;;;;;;26.58;14.27;;;9.30;99.90;;;;;;4934100;28;20032;-84
2022/02/04 07:19:47;;;;;;;24.25;13.85;;;9.00;99.90;;;;;;4926033;28;20039;-82
2022/02/04 07:22:22;;;;;;;20.23;12.55;;;9.00;99.90;;;;;;4952718;28;20042;-87
2022/02/04 07:24:50;;;;;;;23.60;12.80;;;9.10;99.90;;;;;;4937729;28;20039;-83
2022/02/04 07:27:16;;;;;;;21.45;12.48;;;9.10;99.90;;;;;;4936391;29;20086;-85
2022/02/04 07:29:44;;;;;;;21.52;12.40;;;9.10;99.90;;;;;;4935958;29;20031;-83
2022/02/04 07:32:19;;;;;;;21.75;12.45;;;9.20;99.90;;;;;;4950567;28;20103;-83
2022/02/04 07:42:42;;;;;;;20.52;12.00;;;9.10;99.90;;;;;;4934275;28;20069;-83
2022/02/04 07:45:08;;;;;;;24.98;11.65;;;9.10;99.90;;;;;;4934972;29;20367;-79
2022/02/04 07:47:34;;;;;;;20.60;11.75;;;9.30;99.90;;;;;;4934620;29;20044;-81
2022/02/04 07:50:00;;;;;;;19.60;11.65;;;9.10;99.90;;;;;;4933894;28;20038;-80
2022/02/04 07:52:26;;;;;;;20.45;10.55;;;9.10;99.90;;;;;;4933982;28;20622;-82
2022/02/04 07:54:51;;;;;;;17.95;10.80;;;9.10;99.90;;;;;;4934416;28;20131;-82
2022/02/04 07:57:17;;;;;;;21.52;11.35;;;9.20;99.90;;;;;;4935324;29;20106;-85
2022/02/04 07:59:45;;;;;;;18.48;10.68;;;9.20;99.90;;;;;;4936048;28;20059;-85
2022/02/04 08:02:13;;;;;;;17.92;10.60;;;9.20;99.90;;;;;;4934732;29;20039;-87
2022/02/04 08:04:40;;;;;;;17.55;10.32;;;9.30;99.90;;;;;;4936106;28;20227;-87
2022/02/04 08:07:11;;;;;;;21.25;10.68;;;9.20;99.90;;;;;;4936584;28;20028;-83
2022/02/04 08:09:50;;;;;;;16.15;10.23;;;9.20;99.90;;;;;;4953327;28;20040;-84
2022/02/04 08:14:57;;;;;;;19.85;11.07;;;9.30;99.90;;;;;;4940723;28;20039;-87
2022/02/04 08:27:56;;;;;;;15.30;9.32;;;9.40;99.90;;;;;;4948418;28;20383;-87
2022/02/04 08:33:20;;;;;;;16.35;10.40;;;9.50;99.90;;;;;;4947124;28;20032;-85
2022/02/04 08:36:18;;;;;;;14.75;9.40;;;9.50;99.90;;;;;;4951566;28;20091;-82
2022/02/04 08:47:18;;;;;;;15.30;8.88;;;9.40;99.90;;;;;;4952105;28;20043;-82
2022/02/04 08:50:08;;;;;;;12.52;7.97;;;9.40;99.90;;;;;;4947244;28;20051;-83
2022/02/04 08:53:37;;;;;;;13.18;8.48;;;9.40;99.90;;;;;;4943873;28;20107;-81
2022/02/04 08:55:27;;;;;;;14.02;7.82;;;9.40;99.90;;;;;;4945656;29;20094;-81
2022/02/04 08:58:14;;;;;;;19.13;10.60;;;9.50;99.90;;;;;;4955940;28;20019;-79
2022/02/04 09:00:56;;;;;;;12.43;8.80;;;9.50;99.90;;;;;;4946585;29;20027;-79
2022/02/04 09:03:28;;;;;;;13.50;8.38;;;9.50;99.90;;;;;;4943255;28;20183;-84
2022/02/04 09:06:07;;;;;;;13.43;8.60;;;9.50;99.90;;;;;;4938840;29;20098;-84
2022/02/04 09:08:36;;;;;;;13.88;8.95;;;9.50;99.90;;;;;;4938812;28;20123;-85
2022/02/04 09:11:06;;;;;;;11.68;8.38;;;9.60;99.90;;;;;;4938114;28;20091;-82
2022/02/04 09:19:10;;;;;;;11.82;7.22;;;9.70;99.90;;;;;;4936486;28;20474;-82
2022/02/04 09:21:51;;;;;;;12.75;8.25;;;9.60;99.90;;;;;;4936472;28;20023;-80
2022/02/04 09:24:18;;;;;;;13.20;7.80;;;9.70;99.90;;;;;;4937641;29;20024;-79
2022/02/04 09:26:44;;;;;;;13.43;7.60;;;9.70;99.90;;;;;;4937757;28;20549;-84
2022/02/04 09:29:10;;;;;;;14.25;7.90;;;9.70;99.90;;;;;;4936474;29;20039;-82
2022/02/04 09:31:38;;;;;;;13.25;8.18;;;9.70;99.90;;;;;;4937113;28;20039;-83
2022/02/04 09:34:05;;;;;;;14.45;8.15;;;9.70;99.90;;;;;;4937149;28;20043;-82
2022/02/04 09:36:31;;;;;;;14.13;8.02;;;9.70;99.80;;;;;;4937917;28;20092;-84
2022/02/04 09:39:00;;;;;;;13.57;7.70;;;9.80;99.80;;;;;;4937313;29;20035;-82
2022/02/04 09:41:27;;;;;;;12.52;7.95;;;9.70;99.70;;;;;;4936470;29;20044;-83
2022/02/04 09:43:53;;;;;;;14.52;7.40;;;9.70;99.70;;;;;;4937193;28;20470;-83
2022/02/04 09:46:20;;;;;;;12.90;6.93;;;9.70;99.80;;;;;;4935812;28;20044;-83
2022/02/04 09:48:51;;;;;;;10.75;6.90;;;9.70;99.70;;;;;;4935563;28;20075;-84
2022/02/04 09:51:27;;;;;;;13.38;7.07;;;9.80;99.80;;;;;;4935771;29;20020;-85
2022/02/04 10:08:26;;;;;;;9.45;5.90;;;9.90;99.70;;;;;;4937274;28;20028;-80
2022/02/04 10:14:36;;;;;;;7.65;5.40;;;10.00;98.90;;;;;;4936791;28;20036;-78
2022/02/04 10:19:38;;;;;;;10.30;5.35;;;10.10;98.90;;;;;;4936300;28;20028;-80
2022/02/04 10:22:05;;;;;;;12.52;6.05;;;10.10;98.80;;;;;;4934967;28;20028;-83
2022/02/04 10:24:32;;;;;;;11.73;5.28;;;10.20;98.70;;;;;;4934372;28;20109;-83
2022/02/04 10:27:17;;;;;;;8.68;4.30;;;10.30;98.70;;;;;;4934035;29;20035;-80
2022/02/04 10:29:52;;;;;;;7.80;3.70;;;10.30;98.50;;;;;;4933540;29;20100;-81
2022/02/04 10:32:23;;;;;;;9.35;4.25;;;10.30;98.30;;;;;;4933766;28;20115;-86
2022/02/04 10:35:13;;;;;;;7.03;4.15;;;10.30;98.30;;;;;;4933718;29;20042;-82
2022/02/04 10:37:43;;;;;;;6.78;4.00;;;10.30;98.30;;;;;;4935507;29;20163;-85
2022/02/04 10:40:42;;;;;;;5.90;3.92;;;10.30;98.40;;;;;;4935783;28;20028;-88
2022/02/04 10:43:32;;;;;;;8.77;4.03;;;10.30;98.20;;;;;;4936157;28;20187;-81
2022/02/04 10:54:05;;;;;;;;;;;10.50;98.10;;;;;;4936576;28;20102;-83
2022/02/04 10:57:02;;;;;;;10.65;4.53;;;10.40;98.00;;;;;;4938051;28;20183;-80
2022/02/04 11:00:04;;;;;;;9.35;4.10;;;10.50;98.10;;;;;;4936586;28;20500;-82
2022/02/04 11:04:52;;;;;;;6.18;3.92;;;10.70;98.10;;;;;;4937297;29;20055;-85
2022/02/04 11:10:14;;;;;;;5.40;3.50;;;10.70;97.70;;;;;;4936308;28;20035;-80
2022/02/04 11:52:47;;;;;;;6.07;2.55;;;10.60;98.10;;;;;;4956845;28;20461;-81
2022/02/04 11:55:13;;;;;;;6.05;2.08;;;10.70;97.90;;;;;;4956806;28;20055;-82
2022/02/04 11:57:50;;;;;;;6.80;2.75;;;10.70;98.00;;;;;;4955500;28;20097;-79
2022/02/04 12:00:16;;;;;;;3.95;2.38;;;10.70;98.10;;;;;;4956888;28;20046;-81
2022/02/04 12:02:42;;;;;;;6.30;3.38;;;10.70;97.90;;;;;;4954863;28;20470;-79
2022/02/04 12:05:16;;;;;;;3.40;2.20;;;10.60;97.80;;;;;;4956944;28;20038;-81
2022/02/04 12:07:55;;;;;;;7.32;3.00;;;10.60;97.70;;;;;;4957192;28;20414;-79
2022/02/04 12:10:26;;;;;;;4.15;2.47;;;10.70;97.80;;;;;;4955650;28;20351;-78
2022/02/04 12:12:59;;;;;;;4.07;1.92;;;10.70;97.70;;;;;;4956329;28;20047;-80
2022/02/04 12:15:30;;;;;;;3.33;1.80;;;10.70;97.50;;;;;;4957327;28;20030;-77
2022/02/04 12:18:10;;;;;;;2.88;2.03;;;10.70;97.50;;;;;;4957333;28;20031;-84
2022/02/04 12:20:45;;;;;;;1.90;1.63;;;10.80;97.50;;;;;;4957326;28;20035;-85
2022/02/04 12:23:29;;;;;;;11.20;1.80;;;10.80;97.40;;;;;;4955618;28;20054;-82
2022/02/04 12:26:01;;;;;;;2.10;1.60;;;10.80;97.30;;;;;;4957412;28;20035;-85
2022/02/04 12:28:48;;;;;;;4.20;1.88;;;10.80;97.40;;;;;;4957514;28;20042;-83
2022/02/04 12:31:29;;;;;;;2.78;1.45;;;10.90;97.30;;;;;;4956028;28;20115;-77
2022/02/04 12:34:02;;;;;;;3.50;1.90;;;10.90;97.10;;;;;;4957164;28;20031;-83
2022/02/04 12:36:30;;;;;;;3.88;1.73;;;11.00;97.20;;;;;;4956793;28;20086;-83
2022/02/04 12:39:04;;;;;;;3.63;1.70;;;11.00;97.00;;;;;;4957463;28;20129;-81
2022/02/04 12:41:36;;;;;;;3.92;2.05;;;10.90;97.10;;;;;;4956384;28;20524;-82
2022/02/04 12:44:10;;;;;;;3.90;1.40;;;11.00;97.20;;;;;;4956161;28;20126;-80
2022/02/04 12:46:45;;;;;;;1.83;1.38;;;11.10;97.00;;;;;;4955505;28;20041;-80
2022/02/04 12:49:14;;;;;;;1.73;1.33;;;11.10;96.70;;;;;;4955531;28;20135;-84
2022/02/04 12:51:57;;;;;;;2.28;1.52;;;11.10;96.80;;;;;;4956632;28;20038;-81
2022/02/04 12:54:42;;;;;;;3.28;1.60;;;11.10;96.90;;;;;;4956086;28;20012;-81
2022/02/04 13:08:20;;;;;;;5.38;1.60;;;11.00;96.60;;;;;;4959024;28;20127;-83
2022/02/04 13:10:57;;;;;;;2.13;1.33;;;10.90;96.70;;;;;;4965023;28;20035;-90
2022/02/04 13:13:23;;;;;;;7.43;4.38;;;10.90;96.70;;;;;;4958094;28;20417;-87
2022/02/04 13:15:49;;;;;;;2.38;1.60;;;11.00;96.90;;;;;;4956330;28;20023;-83
2022/02/04 13:18:16;;;;;;;2.60;1.63;;;11.00;96.80;;;;;;4957522;28;20039;-93
2022/02/04 13:20:45;;;;;;;5.53;1.83;;;11.00;96.70;;;;;;4957875;28;20109;-86
2022/02/04 13:23:14;;;;;;;;;;;10.90;96.50;;;;;;4956160;28;20059;-80
2022/02/04 13:25:48;;;;;;;7.35;1.23;;;10.90;96.50;;;;;;4955189;28;19972;-82
2022/02/04 13:28:18;;;;;;;1.33;0.77;;;10.90;96.60;;;;;;4956574;28;20086;-82
2022/02/04 13:31:01;;;;;;;2.80;1.05;;;10.90;96.70;;;;;;4955682;28;20042;-86
2022/02/04 13:33:39;;;;;;;1.70;0.90;;;10.90;96.70;;;;;;4957429;28;20020;-82
2022/02/04 13:39:09;;;;;;;1.48;1.05;;;10.80;96.30;;;;;;4956019;28;20034;-82
2022/02/04 13:44:38;;;;;;;0.82;0.80;;;10.90;96.30;;;;;;4955209;28;20478;-85
2022/02/04 13:47:33;;;;;;;1.77;0.80;;;10.90;96.20;;;;;;4956247;28;20050;-84
2022/02/04 13:57:52;;;;;;;8.02;2.40;;;10.90;95.90;;;;;;4957576;28;20098;-83
2022/02/04 14:03:11;;;;;;;0.70;0.60;;;11.00;95.90;;;;;;4957321;28;20054;-82
2022/02/04 14:05:47;;;;;;;1.02;0.60;;;11.00;95.80;;;;;;4954113;28;20032;-77
2022/02/04 14:08:17;;;;;;;4.10;0.90;;;11.00;95.80;;;;;;4954833;28;20027;-80
2022/02/04 14:10:56;;;;;;;1.10;0.80;;;11.00;95.80;;;;;;4955185;28;20028;-80
2022/02/04 14:13:24;;;;;;;0.93;0.70;;;11.00;95.70;;;;;;4955291;28;20081;-81
2022/02/04 14:15:58;;;;;;;3.22;0.98;;;11.00;95.50;;;;;;4955490;28;20039;-80
2022/02/04 14:18:25;;;;;;;4.57;0.55;;;11.00;95.60;;;;;;4956011;28;20023;-81
2022/02/04 14:20:51;;;;;;;2.37;1.10;;;11.00;95.50;;;;;;4952684;28;20503;-79
2022/02/04 14:23:17;;;;;;;2.50;0.60;;;11.00;95.50;;;;;;4953649;28;20039;-86
2022/02/04 14:26:00;;;;;;;2.95;0.80;;;10.90;95.50;;;;;;4953926;28;20042;-84
2022/02/04 14:28:55;;;;;;;0.85;0.60;;;10.90;95.50;;;;;;4954663;28;20114;-88
2022/02/04 14:50:17;;;;;;;1.58;0.70;;;10.70;96.30;;;;;;4933190;28;20405;-82
2022/02/04 15:01:16;;;;;;;7.22;1.25;;;10.40;97.50;;;;;;4952239;29;20035;-84
2022/02/04 15:06:34;;;;;;;3.20;1.42;;;10.40;97.30;;;;;;4953762;29;20038;-79
2022/02/04 15:09:03;;;;;;;2.75;1.25;;;10.30;97.60;;;;;;4954240;28;20220;-84
2022/02/04 15:11:34;;;;;;;2.05;1.20;;;10.40;97.20;;;;;;4953511;28;20311;-81
2022/02/04 15:14:03;;;;;;;3.03;0.95;;;10.40;96.90;;;;;;4953482;28;20458;-85
2022/02/04 15:16:30;;;;;;;1.45;0.90;;;10.30;96.60;;;;;;4952127;28;20027;-83
2022/02/04 15:18:55;;;;;;;2.42;1.17;;;10.30;96.50;;;;;;4955541;28;20034;-83
2022/02/04 15:21:22;;;;;;;4.10;2.20;;;10.20;96.60;;;;;;4957282;28;20027;-82
2022/02/04 15:23:51;;;;;;;4.18;1.08;;;10.30;96.40;;;;;;4956894;28;20028;-84
2022/02/04 15:26:20;;;;;;;2.88;1.40;;;10.30;96.20;;;;;;4957173;28;20097;-82
2022/02/04 15:28:50;;;;;;;2.80;1.40;;;10.30;96.30;;;;;;4956842;28;20030;-81
2022/02/04 15:33:51;;;;;;;2.53;1.30;;;10.30;96.20;;;;;;4957106;28;20457;-80
2022/02/04 15:36:24;;;;;;;2.47;1.50;;;10.30;96.20;;;;;;4957422;28;20421;-79
2022/02/04 15:38:51;;;;;;;3.97;1.60;;;10.30;96.00;;;;;;4957062;28;20408;-80
2022/02/04 15:41:16;;;;;;;1.98;1.40;;;10.30;95.90;;;;;;4956580;28;20418;-78
2022/02/04 15:43:42;;;;;;;2.65;1.30;;;10.30;95.90;;;;;;4956681;28;20413;-84
2022/02/04 15:54:25;;;;;;;4.18;1.75;;;10.20;95.90;;;;;;4957617;28;19985;-78
2022/02/04 16:06:47;;;;;;;;;;;10.20;95.40;;;;;;4953841;28;20027;-80
2022/02/04 16:09:13;;;;;;;2.05;1.25;;;10.20;95.30;;;;;;4957118;28;19925;-78
2022/02/04 16:14:22;;;;;;;2.55;1.33;;;10.20;95.20;;;;;;4956375;28;20071;-76
2022/02/04 16:16:56;;;;;;;2.20;1.27;;;10.10;95.10;;;;;;4956348;28;20031;-76
2022/02/04 16:28:38;;;;;;;4.22;1.35;;;10.20;95.00;;;;;;4956350;28;20055;-78
2022/02/04 16:29:56;;;;;;;3.85;1.33;;;10.20;95.00;;;;;;4955830;28;20090;-82
2022/02/04 16:32:22;;;;;;;3.35;1.10;;;10.20;95.10;;;;;;4955737;28;20063;-78
2022/02/04 16:34:54;;;;;;;5.88;1.67;;;10.20;95.40;;;;;;4956221;28;20043;-83
2022/02/04 16:37:29;;;;;;;5.20;1.60;;;10.30;95.40;;;;;;4955640;28;20101;-80
2022/02/04 16:40:03;;;;;;;5.28;1.70;;;10.30;94.90;;;;;;4955939;28;20454;-75
2022/02/04 16:42:29;;;;;;;4.20;1.73;;;10.30;95.10;;;;;;4955494;28;20082;-73
2022/02/04 16:44:55;;;;;;;4.20;1.30;;;10.30;94.80;;;;;;4954646;29;20063;-74
2022/02/04 16:47:21;;;;;;;4.68;1.77;;;10.20;94.80;;;;;;4955268;28;20031;-73
2022/02/04 16:49:47;;;;;;;4.28;1.88;;;10.20;94.80;;;;;;4954775;28;20038;-73
2022/02/04 16:52:13;;;;;;;8.10;4.38;;;10.20;94.80;;;;;;4954818;28;20430;-74
2022/02/04 16:54:39;;;;;;;4.88;1.77;;;10.20;94.80;;;;;;4953832;28;20110;-72
2022/02/04 16:57:05;;;;;;;7.50;1.60;;;10.30;94.90;;;;;;4954238;28;20493;-74
2022/02/04 16:59:31;;;;;;;4.55;1.80;;;10.20;94.80;;;;;;4954888;28;20027;-72
2022/02/04 17:01:58;;;;;;;3.97;2.30;;;10.20;94.80;;;;;;4954599;28;20062;-73
2022/02/04 17:04:24;;;;;;;4.35;2.08;;;10.20;95.00;;;;;;4948264;28;20024;-74
2022/02/04 17:06:57;;;;;;;4.20;1.50;;;10.20;95.30;;;;;;4935356;28;20036;-74
2022/02/04 17:09:28;;;;;;;5.25;2.05;;;10.20;95.00;;;;;;4935891;29;20020;-74
2022/02/04 17:12:02;;;;;;;4.15;1.88;;;10.20;95.00;;;;;;4935291;29;20082;-72
2022/02/04 17:14:29;;;;;;;8.73;1.73;;;10.20;95.00;;;;;;4935568;28;20525;-78
2022/02/04 17:16:56;;;;;;;4.85;1.65;;;10.20;94.80;;;;;;4935557;28;20031;-73
2022/02/04 17:19:28;;;;;;;9.75;2.72;;;10.10;94.90;;;;;;4935300;28;20035;-76
2022/02/04 17:21:59;;;;;;;5.80;1.90;;;10.20;95.10;;;;;;4934996;28;20099;-76
2022/02/04 17:24:25;;;;;;;11.68;1.77;;;10.10;95.30;;;;;;4950547;29;20028;-85
2022/02/04 17:26:50;;;;;;;5.68;2.15;;;10.10;95.60;;;;;;4935254;28;20347;-78
2022/02/04 17:29:16;;;;;;;6.20;2.22;;;10.10;95.80;;;;;;4935169;28;20040;-74
2022/02/04 17:31:41;;;;;;;6.72;1.90;;;10.20;96.00;;;;;;4935201;28;20044;-75
2022/02/04 17:34:07;;;;;;;4.55;1.48;;;10.10;95.90;;;;;;4935102;28;20060;-73
2022/02/04 17:36:34;;;;;;;6.05;1.55;;;10.00;96.10;;;;;;4935282;28;20382;-76
2022/02/04 17:39:01;;;;;;;2.67;1.20;;;9.90;96.80;;;;;;4935974;29;20466;-77
2022/02/04 17:41:27;;;;;;;4.38;2.00;;;9.90;96.90;;;;;;4934541;28;20509;-77
2022/02/04 17:43:54;;;;;;;6.97;1.80;;;9.90;97.10;;;;;;4935264;28;20035;-76
2022/02/04 17:46:25;;;;;;;4.15;1.27;;;9.90;97.20;;;;;;4934773;28;20031;-75
2022/02/04 17:48:57;;;;;;;3.55;1.35;;;9.80;97.40;;;;;;4934995;28;20043;-76
2022/02/04 17:51:37;;;;;;;3.97;1.48;;;9.80;97.60;;;;;;4933285;29;20454;-83
2022/02/04 17:54:06;;;;;;;4.60;2.22;;;9.80;97.70;;;;;;4935474;29;20047;-77
2022/02/04 17:56:38;;;;;;;;;;;;;;;;;;;;;
2022/02/04 17:59:10;;;;;;;4.15;1.60;;;9.70;97.90;;;;;;4936229;28;20036;-81
2022/02/04 18:01:53;;;;;;;4.88;1.63;;;9.60;98.00;;;;;;4935691;28;20550;-81
2022/02/04 18:07:12;;;;;;;3.65;1.45;;;9.50;98.30;;;;;;4935741;28;20038;-82
2022/02/04 18:09:41;;;;;;;3.38;1.60;;;9.60;98.50;;;;;;4935838;28;20027;-82
2022/02/04 18:12:08;;;;;;;2.95;1.58;;;9.50;98.50;;;;;;4936154;29;20130;-78
2022/02/04 18:14:33;;;;;;;4.88;1.58;;;9.50;99.00;;;;;;4935590;28;20024;-76
2022/02/04 18:16:59;;;;;;;4.57;1.77;;;9.40;98.70;;;;;;4935473;28;20024;-78
2022/02/04 18:19:25;;;;;;;6.57;2.05;;;9.40;98.80;;;;;;4940140;28;20366;-77
2022/02/04 18:21:50;;;;;;;3.95;1.88;;;9.50;98.90;;;;;;4954074;28;20101;-76
2022/02/04 18:24:16;;;;;;;6.18;1.58;;;9.50;98.90;;;;;;4953829;28;20024;-77
2022/02/04 18:26:42;;;;;;;7.07;2.08;;;9.40;98.90;;;;;;4954530;28;20557;-82
2022/02/04 18:29:07;;;;;;;4.47;1.77;;;9.40;99.00;;;;;;4954306;28;20038;-79
2022/02/04 18:31:34;;;;;;;2.90;1.63;;;9.40;99.20;;;;;;4953382;28;20027;-74
2022/02/04 18:34:09;;;;;;;3.33;1.58;;;9.40;99.50;;;;;;4954265;28;20421;-81
2022/02/04 18:36:34;;;;;;;4.28;1.33;;;9.30;99.90;;;;;;4953781;28;20030;-79
2022/02/04 18:39:23;;;;;;;3.95;1.08;;;9.10;99.90;;;;;;4954657;28;20091;-80
2022/02/04 18:42:23;;;;;;;5.95;0.90;;;8.60;99.90;;;;;;4954300;28;20473;-85
2022/02/04 18:44:53;;;;;;;0.93;0.60;;;8.70;99.90;;;;;;4954105;28;20042;-77
2022/02/04 18:47:31;;;;;;;3.55;0.40;;;8.00;99.70;;;;;;4954232;28;20038;-76
2022/02/04 18:50:03;;;;;;;1.13;0.70;;;8.00;99.90;;;;;;4954300;28;20488;-74
2022/02/04 18:52:38;;;;;;;1.38;0.60;;;8.10;99.90;;;;;;4952828;28;20430;-74
2022/02/04 18:55:38;;;;;;;0.50;0.32;;;8.00;99.60;;;;;;4969194;28;20032;-75
2022/02/04 18:57:51;;;;;;;1.55;0.63;;;7.70;99.50;;;;;;4954014;28;20043;-74
2022/02/04 19:00:18;;;;;;;4.32;1.08;;;7.70;99.90;;;;;;4954474;29;20058;-73
2022/02/04 19:02:48;;;;;;;0.63;0.60;;;7.50;99.90;;;;;;4953923;28;20486;-73
2022/02/04 19:05:20;;;;;;;2.10;0.85;;;7.00;99.90;;;;;;4953334;28;20097;-77
2022/02/04 19:10:17;;;;;;;1.20;0.75;;;6.60;99.90;;;;;;4954044;28;20038;-72
2022/02/04 19:12:49;;;;;;;1.75;0.70;;;6.40;99.90;;;;;;4953814;28;20365;-73